This is the latest recevied weather packets stored in our database for station/object DO7CRZ-12. If no packets are shown the sender has not sent any weather packets the latest 10 day(s).
| Time | Temp. | Humidity | Pressure | Rain* | Wind** | Luminosity | Snow |
|---|---|---|---|---|---|---|---|
| 1777890437 | 30° C | 24% | 1013.4 hPa | 0 mm | - | 685 W/m² | - |
| 1777889849 | 27.78° C | 24% | 1013.5 hPa | 0 mm | - | 502 W/m² | - |
| 1777889246 | 28.33° C | 23% | 1013.6 hPa | 0 mm | - | 240 W/m² | - |
| 1777888643 | 29.44° C | 24% | 1013.6 hPa | 0 mm | - | 432 W/m² | - |
| 1777888040 | 30° C | 23% | 1013.6 hPa | 0 mm | - | 453 W/m² | - |
| 1777887438 | 30° C | 24% | 1013.8 hPa | 0 mm | - | 548 W/m² | - |
| 1777886850 | 30.56° C | 23% | 1013.8 hPa | 0 mm | - | 572 W/m² | - |
| 1777886247 | 29.44° C | 24% | 1013.8 hPa | 0 mm | - | 544 W/m² | - |
| 1777885041 | 27.78° C | 24% | 1013.7 hPa | 0 mm | - | 519 W/m² | - |
| 1777884438 | 26.67° C | 24% | 1013.8 hPa | 0 mm | - | 486 W/m² | - |
| 1777883248 | 25.56° C | 29% | 1013.8 hPa | 0 mm | - | 386 W/m² | - |
| 1777882645 | 24.44° C | 32% | 1013.8 hPa | 0 mm | - | 403 W/m² | - |
| 1777881439 | 20° C | 41% | 1013.6 hPa | 0 mm | - | 79 W/m² | - |
| 1777880836 | 20° C | 41% | 1013.6 hPa | 0 mm | - | 65 W/m² | - |
| 1777880249 | 19.44° C | 40% | 1013.7 hPa | 0 mm | - | 72 W/m² | - |
| 1777879645 | 19.44° C | 41% | 1013.5 hPa | 0 mm | - | 86 W/m² | - |
| 1777879042 | 19.44° C | 40% | 1013.5 hPa | 0 mm | - | 87 W/m² | - |
| 1777878440 | 18.89° C | 40% | 1013.6 hPa | 0 mm | - | 79 W/m² | - |
| 1777877837 | 18.89° C | 41% | 1013.5 hPa | 0 mm | - | 61 W/m² | - |
| 1777877249 | 17.78° C | 44% | 1013.6 hPa | 0 mm | - | 67 W/m² | - |
| 1777876646 | 17.22° C | 46% | 1013.6 hPa | 0 mm | - | 38 W/m² | - |
| 1777876043 | 16.67° C | 49% | 1013.6 hPa | 0 mm | - | 33 W/m² | - |
| 1777875440 | 16.67° C | 48% | 1013.7 hPa | 0 mm | - | 35 W/m² | - |
| 1777874842 | 16.67° C | 46% | 1013.6 hPa | 0 mm | - | 29 W/m² | - |
| 1777874249 | 17.22° C | 45% | 1013.4 hPa | 0 mm | - | 27 W/m² | - |
* Rain latest hour (hover to see other rain measurements)
** Current wind speed in m/s (hover to see current wind gust speed)